Time;durP1;ratioP1;P1;durP2;ratioP2;P2;SDS_P1;SDS_P2;PMS_P1;PMS_P2;Temp;Humidity;BMP_temperature;BMP_pressure;BME280_temperature;BME280_humidity;BME280_pressure;Samples;Min_cycle;Max_cycle;Signal;HPM_P1;HPM_P2
2022/10/15 00:05:15;;;;;;;;;;;;;;;8.40;100.00;97985.63;7400600;19;19918;-50
2022/10/15 00:14:09;;;;;;;;;;;;;;;8.57;100.00;97983.75;7400315;19;20362;-48
2022/10/15 00:19:54;;;;;;;;;;;;;;;8.32;100.00;97985.22;7403803;19;19993;-47
2022/10/15 00:31:29;;;;;;;;;;;;;;;8.71;100.00;97983.78;7404504;19;19922;-47
2022/10/15 00:46:54;;;;;;;;;;;;;;;8.31;100.00;97963.41;7396615;19;19918;-48
2022/10/15 00:53:07;;;;;;;;;;;;;;;8.37;100.00;97957.81;7397374;19;20314;-47
2022/10/15 00:58:57;;;;;;;;;;;;;;;8.20;100.00;97951.84;7394929;19;19931;-49
2022/10/15 01:01:29;;;;;;;;;;;;;;;8.19;100.00;97950.16;7395298;19;20348;-47
2022/10/15 01:07:02;;;;;;;;;;;;;;;7.93;100.00;97955.06;7399066;19;19910;-48
2022/10/15 01:15:59;;;;;;;;;;;;;;;7.81;100.00;97942.63;7398002;19;19935;-48
2022/10/15 01:21:35;;;;;;;;;;;;;;;8.16;100.00;97931.97;7398147;19;19941;-47
2022/10/15 01:39:24;;;;;;;;;;;;;;;8.69;100.00;97911.38;7398811;19;19922;-47
2022/10/15 01:45:30;;;;;;;;;;;;;;;8.92;100.00;97913.53;7392064;19;19931;-48
2022/10/15 01:48:55;;;;;;;;;;;;;;;8.82;100.00;97918.44;7392242;19;20247;-48
2022/10/15 01:51:28;;;;;;;;;;;;;;;8.86;100.00;97913.88;7397020;19;20017;-47
2022/10/15 01:54:08;;;;;;;;;;;;;;;8.95;100.00;97915.94;7393796;19;19947;-51
2022/10/15 01:59:51;;;;;;;;;;;;;;;9.14;100.00;97914.75;7393624;19;19922;-50
2022/10/15 02:05:23;;;;;;;;;;;;;;;9.18;100.00;97900.50;7393944;19;19922;-48
2022/10/15 02:11:06;;;;;;;;;;;;;;;9.36;100.00;97907.28;7393239;19;19918;-49
2022/10/15 02:17:01;;;;;;;;;;;;;;;9.35;100.00;97913.50;7394722;19;20250;-48
2022/10/15 02:22:37;;;;;;;;;;;;;;;9.26;100.00;97897.44;7393129;19;19922;-47
2022/10/15 02:28:20;;;;;;;;;;;;;;;9.73;100.00;97895.38;7392932;19;19934;-51
2022/10/15 02:37:06;;;;;;;;;;;;;;;9.34;100.00;97897.81;7391166;19;19993;-50
2022/10/15 02:42:48;;;;;;;;;;;;;;;9.51;100.00;97882.72;7392653;19;19924;-49
2022/10/15 02:48:33;;;;;;;;;;;;;;;9.31;100.00;97866.50;7404917;19;19945;-49
2022/10/15 02:54:08;;;;;;;;;;;;;;;9.39;100.00;97867.72;7398665;19;19927;-48
2022/10/15 02:56:38;;;;;;;;;;;;;;;9.31;100.00;97867.38;7403073;19;19922;-47
2022/10/15 03:05:13;;;;;;;;;;;;;;;9.10;100.00;97868.63;7402605;19;19958;-48
2022/10/15 03:11:15;;;;;;;;;;;;;;;9.28;100.00;97862.25;7398971;19;19921;-47
2022/10/15 03:16:56;;;;;;;;;;;;;;;9.27;100.00;97854.47;7397279;19;20248;-48
2022/10/15 03:22:32;;;;;;;;;;;;;;;9.19;100.00;97857.59;7399105;19;20331;-48
2022/10/15 03:28:07;;;;;;;;;;;;;;;9.37;100.00;97847.75;7398434;19;19913;-47
2022/10/15 03:42:40;;;;;;;;;;;;;;;9.26;100.00;97855.44;7397840;19;19921;-51
2022/10/15 03:51:21;;;;;;;;;;;;;;;9.11;100.00;97845.88;7401863;19;19921;-47
2022/10/15 04:03:32;;;;;;;;;;;;;;;9.26;100.00;97839.69;7402153;19;19934;-49
2022/10/15 04:09:01;;;;;;;;;;;;;;;9.42;100.00;97835.19;7399981;19;19917;-50
2022/10/15 04:14:43;;;;;;;;;;;;;;;9.62;100.00;97835.59;7400329;19;19997;-49
2022/10/15 04:20:28;;;;;;;;;;;;;;;9.23;100.00;97831.97;7404852;19;19921;-52
2022/10/15 04:29:52;;;;;;;;;;;;;;;9.05;100.00;97830.50;7401230;19;19925;-49
2022/10/15 04:41:12;;;;;;;;;;;;;;;9.18;100.00;97811.25;7396804;19;20314;-52
2022/10/15 04:50:12;;;;;;;;;;;;;;;9.13;100.00;97821.22;7395199;19;19922;-48
2022/10/15 04:56:33;;;;;;;;;;;;;;;8.84;100.00;97811.66;7394508;19;19918;-48
2022/10/15 05:08:01;;;;;;;;;;;;;;;8.76;100.00;97813.03;7398083;19;20008;-48
2022/10/15 05:14:01;;;;;;;;;;;;;;;8.94;100.00;97811.94;7395954;19;19921;-49
2022/10/15 05:19:40;;;;;;;;;;;;;;;8.73;100.00;97813.22;7395348;19;20323;-48
2022/10/15 05:25:24;;;;;;;;;;;;;;;8.74;100.00;97820.19;7395076;19;19917;-49
2022/10/15 05:31:12;;;;;;;;;;;;;;;8.85;100.00;97823.00;7394491;19;19928;-52
2022/10/15 05:39:55;;;;;;;;;;;;;;;9.10;100.00;97817.91;7393985;19;19910;-49
2022/10/15 05:42:27;;;;;;;;;;;;;;;9.24;100.00;97817.91;7392827;19;20347;-49
2022/10/15 05:45:00;;;;;;;;;;;;;;;9.36;100.00;97812.78;7394332;19;19923;-48
2022/10/15 05:53:35;;;;;;;;;;;;;;;9.77;100.00;97823.28;7393786;19;19973;-49
2022/10/15 05:56:35;;;;;;;;;;;;;;;9.82;100.00;97831.72;7395325;19;19929;-51
2022/10/15 05:59:05;;;;;;;;;;;;;;;9.80;100.00;97836.22;7391517;19;19929;-50
2022/10/15 06:04:46;;;;;;;;;;;;;;;9.83;100.00;97831.63;7377875;19;19939;-47
2022/10/15 06:07:15;;;;;;;;;;;;;;;9.88;100.00;97839.22;7374666;19;19914;-58
2022/10/15 06:09:47;;;;;;;;;;;;;;;9.91;100.00;97837.22;7383555;19;19970;-47
2022/10/15 06:15:26;;;;;;;;;;;;;;;9.93;100.00;97851.13;7393726;19;19993;-50
2022/10/15 06:21:08;;;;;;;;;;;;;;;10.02;100.00;97847.03;7405809;19;19927;-47
2022/10/15 06:29:37;;;;;;;;;;;;;;;10.19;100.00;97844.16;7390950;19;20355;-49
2022/10/15 06:32:06;;;;;;;;;;;;;;;10.18;100.00;97845.09;7385219;19;19914;-48
2022/10/15 06:34:36;;;;;;;;;;;;;;;10.34;100.00;97840.50;7388094;19;20068;-48
2022/10/15 06:37:05;;;;;;;;;;;;;;;10.43;100.00;97832.84;7386994;19;19921;-49
2022/10/15 06:39:34;;;;;;;;;;;;;;;10.51;100.00;97837.63;7385793;19;19947;-52
2022/10/15 06:42:03;;;;;;;;;;;;;;;10.57;100.00;97845.06;7389154;19;19919;-48
2022/10/15 06:44:44;;;;;;;;;;;;;;;10.62;100.00;97835.09;7383772;19;19974;-52
2022/10/15 06:47:15;;;;;;;;;;;;;;;10.80;100.00;97836.53;7387289;19;19936;-47
2022/10/15 06:49:45;;;;;;;;;;;;;;;11.24;100.00;97836.94;7388655;19;19915;-48
2022/10/15 06:52:14;;;;;;;;;;;;;;;11.30;100.00;97832.06;7386897;19;20331;-51
2022/10/15 06:54:43;;;;;;;;;;;;;;;11.38;100.00;97825.44;7390524;19;19925;-49
2022/10/15 06:57:12;;;;;;;;;;;;;;;11.50;100.00;97832.47;7390494;19;20256;-49
2022/10/15 06:59:44;;;;;;;;;;;;;;;11.61;100.00;97833.41;7386313;19;20314;-55
2022/10/15 07:02:14;;;;;;;;;;;;;;;11.31;100.00;97833.75;7391564;19;19923;-49
2022/10/15 07:04:43;;;;;;;;;;;;;;;11.55;100.00;97833.81;7391286;19;19923;-51
2022/10/15 07:07:19;;;;;;;;;;;;;;;11.22;100.00;97838.81;7387335;19;19945;-50
2022/10/15 07:09:52;;;;;;;;;;;;;;;11.74;100.00;97841.22;7388717;19;19977;-47
2022/10/15 07:12:22;;;;;;;;;;;;;;;11.65;100.00;97840.13;7390159;19;19915;-47
2022/10/15 07:14:53;;;;;;;;;;;;;;;11.74;100.00;97836.81;7393989;19;19929;-48
2022/10/15 07:17:22;;;;;;;;;;;;;;;11.47;100.00;97842.25;7390496;19;19918;-49
2022/10/15 07:19:51;;;;;;;;;;;;;;;11.50;100.00;97841.22;7392710;19;19918;-49
2022/10/15 07:22:20;;;;;;;;;;;;;;;11.70;100.00;97845.03;7388920;19;19970;-49
2022/10/15 07:24:49;;;;;;;;;;;;;;;11.58;100.00;97838.03;7391372;19;19915;-48
2022/10/15 07:27:19;;;;;;;;;;;;;;;12.07;100.00;97837.03;7393139;19;20318;-47
2022/10/15 07:29:48;;;;;;;;;;;;;;;11.73;100.00;97837.78;7387317;19;19935;-47
2022/10/15 07:32:20;;;;;;;;;;;;;;;11.84;100.00;97845.75;7391999;19;19922;-48
2022/10/15 07:34:49;;;;;;;;;;;;;;;12.04;100.00;97833.81;7393360;19;20307;-48
2022/10/15 07:37:18;;;;;;;;;;;;;;;11.92;100.00;97832.88;7388776;19;19919;-47
2022/10/15 07:39:47;;;;;;;;;;;;;;;11.89;100.00;97835.72;7390498;19;19914;-49
2022/10/15 07:42:16;;;;;;;;;;;;;;;12.25;100.00;97832.19;7389884;19;19928;-47
2022/10/15 07:44:46;;;;;;;;;;;;;;;12.10;100.00;97835.97;7385458;19;19945;-51
2022/10/15 07:47:16;;;;;;;;;;;;;;;11.84;100.00;97835.22;7392797;19;19962;-47
2022/10/15 07:49:48;;;;;;;;;;;;;;;11.85;100.00;97834.25;7388920;19;20307;-48
2022/10/15 07:52:17;;;;;;;;;;;;;;;11.82;100.00;97831.81;7389864;19;19942;-51
2022/10/15 07:54:46;;;;;;;;;;;;;;;11.97;100.00;97828.09;7393155;19;19918;-48
2022/10/15 07:57:18;;;;;;;;;;;;;;;12.20;100.00;97826.44;7390181;19;19917;-49
2022/10/15 07:59:49;;;;;;;;;;;;;;;12.13;100.00;97825.19;7384653;19;19918;-49
2022/10/15 08:02:19;;;;;;;;;;;;;;;12.33;100.00;97835.13;7389639;19;19923;-49
2022/10/15 08:04:51;;;;;;;;;;;;;;;12.47;100.00;97832.28;7388545;19;20319;-57
2022/10/15 08:07:20;;;;;;;;;;;;;;;12.44;100.00;97829.88;7391529;19;19918;-47
2022/10/15 08:09:49;;;;;;;;;;;;;;;12.52;100.00;97830.16;7389594;19;19986;-48
2022/10/15 08:12:18;;;;;;;;;;;;;;;12.37;100.00;97826.03;7387427;19;19931;-51
2022/10/15 08:14:48;;;;;;;;;;;;;;;12.77;100.00;97830.81;7386346;19;20393;-48
2022/10/15 08:17:20;;;;;;;;;;;;;;;12.74;100.00;97846.06;7386673;19;19923;-47
2022/10/15 08:19:51;;;;;;;;;;;;;;;12.82;100.00;97833.94;7383791;19;19915;-51
2022/10/15 08:22:20;;;;;;;;;;;;;;;12.77;100.00;97840.53;7388725;19;20423;-52
2022/10/15 08:24:51;;;;;;;;;;;;;;;12.76;100.00;97839.72;7386986;19;19920;-48
2022/10/15 08:27:20;;;;;;;;;;;;;;;12.81;100.00;97831.44;7384439;19;19918;-57
2022/10/15 08:29:49;;;;;;;;;;;;;;;12.86;100.00;97845.97;7387728;19;20280;-50
2022/10/15 08:32:17;;;;;;;;;;;;;;;13.21;100.00;97841.47;7382006;19;19917;-47
2022/10/15 08:34:47;;;;;;;;;;;;;;;13.12;100.00;97833.44;7384929;19;20286;-52
2022/10/15 08:37:19;;;;;;;;;;;;;;;12.93;100.00;97839.25;7390211;19;19985;-56
2022/10/15 08:39:48;;;;;;;;;;;;;;;12.93;100.00;97847.16;7394271;19;19919;-47
2022/10/15 08:42:20;;;;;;;;;;;;;;;12.81;100.00;97850.75;7398568;19;19917;-47
2022/10/15 08:48:05;;;;;;;;;;;;;;;13.09;100.00;97860.06;7389686;19;20176;-49
2022/10/15 08:50:39;;;;;;;;;;;;;;;13.35;100.00;97851.81;7387854;19;19910;-47
2022/10/15 08:53:15;;;;;;;;;;;;;;;13.33;100.00;97858.19;7382474;19;19946;-47
2022/10/15 08:55:46;;;;;;;;;;;;;;;13.43;100.00;97852.06;7387968;19;20345;-51
2022/10/15 08:58:17;;;;;;;;;;;;;;;13.53;100.00;97847.75;7388831;19;19913;-48
2022/10/15 09:00:49;;;;;;;;;;;;;;;13.36;100.00;97860.56;7386233;19;19918;-48
2022/10/15 09:03:34;;;;;;;;;;;;;;;13.49;100.00;97848.09;7380747;19;20303;-47
2022/10/15 09:06:06;;;;;;;;;;;;;;;13.48;100.00;97860.47;7392024;19;19953;-47
2022/10/15 09:08:42;;;;;;;;;;;;;;;13.42;100.00;97860.97;7385951;19;19921;-48
2022/10/15 09:11:17;;;;;;;;;;;;;;;13.49;100.00;97851.59;7391346;19;19919;-48
2022/10/15 09:17:07;;;;;;;;;;;;;;;13.73;100.00;97860.22;7394016;19;20238;-47
2022/10/15 09:19:38;;;;;;;;;;;;;;;13.55;100.00;97853.72;7388463;19;19930;-47
2022/10/15 09:22:17;;;;;;;;;;;;;;;13.52;100.00;97855.78;7387563;19;20232;-52
2022/10/15 09:24:50;;;;;;;;;;;;;;;13.70;100.00;97855.16;7388680;19;19922;-49
2022/10/15 09:33:31;;;;;;;;;;;;;;;13.55;100.00;97856.38;7393907;19;19926;-51
2022/10/15 09:36:07;;;;;;;;;;;;;;;13.67;100.00;97858.06;7381729;19;19922;-47
2022/10/15 09:38:40;;;;;;;;;;;;;;;13.84;100.00;97862.84;7395364;19;19918;-48
2022/10/15 09:44:35;;;;;;;;;;;;;;;13.89;100.00;97868.59;7399692;19;19929;-49
2022/10/15 09:50:30;;;;;;;;;;;;;;;14.04;100.00;97859.44;7400893;19;19936;-48
2022/10/15 09:53:06;;;;;;;;;;;;;;;14.07;100.00;97848.59;7397052;19;20224;-48
2022/10/15 09:55:39;;;;;;;;;;;;;;;14.11;100.00;97846.56;7400714;19;19979;-49
2022/10/15 09:58:25;;;;;;;;;;;;;;;14.29;100.00;97847.75;7394179;19;19936;-53
2022/10/15 10:00:57;;;;;;;;;;;;;;;14.41;100.00;97849.38;7407538;19;19922;-52
2022/10/15 10:03:28;;;;;;;;;;;;;;;14.53;100.00;97848.34;7404356;19;19914;-50
2022/10/15 10:06:08;;;;;;;;;;;;;;;14.53;100.00;97843.91;7405643;19;20215;-52
2022/10/15 10:08:52;;;;;;;;;;;;;;;14.66;100.00;97835.78;7402400;19;20276;-49
2022/10/15 10:11:50;;;;;;;;;;;;;;;14.64;100.00;97845.66;7398715;19;19926;-50
2022/10/15 10:14:31;;;;;;;;;;;;;;;14.45;100.00;97840.22;7390637;19;19948;-47
2022/10/15 10:20:06;;;;;;;;;;;;;;;14.25;100.00;97849.78;7401699;19;19918;-48
2022/10/15 10:25:48;;;;;;;;;;;;;;;14.02;100.00;97852.56;7401037;19;19917;-55
2022/10/15 10:28:20;;;;;;;;;;;;;;;13.98;100.00;97844.06;7400189;19;20027;-48
2022/10/15 10:34:06;;;;;;;;;;;;;;;14.37;100.00;97851.44;7397211;19;19922;-48
2022/10/15 10:36:37;;;;;;;;;;;;;;;14.41;100.00;97850.22;7395306;19;20260;-49
2022/10/15 10:39:20;;;;;;;;;;;;;;;14.28;100.00;97851.31;7398087;19;20022;-49
2022/10/15 10:41:51;;;;;;;;;;;;;;;14.28;100.00;97852.19;7398588;19;19919;-48
2022/10/15 10:44:23;;;;;;;;;;;;;;;14.25;100.00;97860.38;7398313;19;20210;-48
2022/10/15 10:47:11;;;;;;;;;;;;;;;14.11;100.00;97865.94;7401789;19;19917;-53
2022/10/15 10:49:45;;;;;;;;;;;;;;;14.33;100.00;97857.94;7388755;19;20245;-49
2022/10/15 10:52:26;;;;;;;;;;;;;;;14.43;100.00;97853.56;7394033;19;19923;-51
2022/10/15 10:54:59;;;;;;;;;;;;;;;14.29;100.00;97853.84;7393704;19;19914;-58
2022/10/15 10:57:35;;;;;;;;;;;;;;;14.51;100.00;97847.66;7402856;19;19984;-51
2022/10/15 11:00:26;;;;;;;;;;;;;;;14.34;100.00;97862.28;7396230;19;19922;-50
2022/10/15 11:02:55;;;;;;;;;;;;;;;14.48;100.00;97855.84;7394280;19;19915;-49
2022/10/15 11:18:08;;;;;;;;;;;;;;;14.57;100.00;97856.91;7398652;19;19940;-52
2022/10/15 11:33:41;;;;;;;;;;;;;;;14.87;100.00;97833.13;7401602;19;20242;-51
2022/10/15 11:42:20;;;;;;;;;;;;;;;14.70;100.00;97845.16;7395997;19;20004;-49
2022/10/15 11:51:03;;;;;;;;;;;;;;;14.63;100.00;97846.63;7397059;19;19922;-49
2022/10/15 11:54:00;;;;;;;;;;;;;;;14.79;100.00;97848.84;7399556;19;19946;-51
2022/10/15 11:56:31;;;;;;;;;;;;;;;14.42;100.00;97843.97;7400522;19;20367;-48
2022/10/15 11:59:06;;;;;;;;;;;;;;;14.59;100.00;97842.56;7403150;19;19931;-49
2022/10/15 12:01:39;;;;;;;;;;;;;;;14.62;100.00;97840.47;7402973;19;20000;-50
2022/10/15 12:04:26;;;;;;;;;;;;;;;14.45;100.00;97833.13;7395544;19;20301;-50
2022/10/15 12:07:03;;;;;;;;;;;;;;;14.53;100.00;97835.97;7397888;19;19955;-51
2022/10/15 12:09:39;;;;;;;;;;;;;;;14.39;100.00;97832.75;7395905;19;19928;-50
2022/10/15 12:12:35;;;;;;;;;;;;;;;14.44;100.00;97836.72;7398525;19;19969;-48
2022/10/15 12:15:34;;;;;;;;;;;;;;;14.81;100.00;97831.84;7390042;19;19963;-48
2022/10/15 12:18:10;;;;;;;;;;;;;;;14.57;100.00;97835.72;7392523;19;19914;-51
2022/10/15 12:20:44;;;;;;;;;;;;;;;14.55;100.00;97831.38;7385191;19;20893;-56
2022/10/15 12:26:37;;;;;;;;;;;;;;;14.80;100.00;97830.19;7396925;19;20322;-50
2022/10/15 12:29:08;;;;;;;;;;;;;;;14.75;97.88;97839.47;7395290;19;19922;-49
2022/10/15 12:34:41;;;;;;;;;;;;;;;15.05;91.88;97828.94;7394711;19;20249;-50
2022/10/15 12:37:48;;;;;;;;;;;;;;;14.96;91.71;97829.69;7390242;19;19975;-52
2022/10/15 12:40:29;;;;;;;;;;;;;;;15.01;90.34;97823.03;7394534;19;19923;-51
2022/10/15 12:42:59;;;;;;;;;;;;;;;15.14;90.92;97828.16;7390115;19;19914;-48
2022/10/15 12:51:38;;;;;;;;;;;;;;;15.02;91.19;97823.88;7396023;19;19926;-49
2022/10/15 13:07:10;;;;;;;;;;;;;;;15.14;92.64;97833.47;7395547;19;20007;-49
2022/10/15 13:09:46;;;;;;;;;;;;;;;15.24;92.38;97824.63;7391882;19;19914;-47
2022/10/15 13:15:19;;;;;;;;;;;;;;;15.46;89.66;97826.22;7394982;19;19917;-48
2022/10/15 13:20:57;;;;;;;;;;;;;;;15.35;91.37;97819.19;7392206;19;19930;-50
2022/10/15 13:23:29;;;;;;;;;;;;;;;15.14;89.66;97820.22;7391333;19;20292;-48
2022/10/15 13:26:13;;;;;;;;;;;;;;;15.06;90.13;97820.00;7394683;19;20906;-48
2022/10/15 13:28:44;;;;;;;;;;;;;;;14.98;89.52;97822.47;7386369;19;20311;-47
2022/10/15 13:31:17;;;;;;;;;;;;;;;15.01;89.61;97824.88;7388000;19;19915;-46
2022/10/15 13:33:48;;;;;;;;;;;;;;;15.12;90.97;97824.81;7389039;19;19938;-50
2022/10/15 13:36:24;;;;;;;;;;;;;;;14.85;92.32;97821.81;7391510;19;20220;-46
2022/10/15 13:38:54;;;;;;;;;;;;;;;14.81;94.11;97817.75;7389615;19;19928;-48
2022/10/15 13:41:31;;;;;;;;;;;;;;;14.83;94.66;97821.13;7390896;19;19919;-47
2022/10/15 13:44:01;;;;;;;;;;;;;;;14.89;93.97;97810.84;7383841;19;19914;-49
2022/10/15 13:46:33;;;;;;;;;;;;;;;14.77;95.41;97825.13;7393975;19;20339;-50
2022/10/15 13:49:03;;;;;;;;;;;;;;;14.76;95.53;97819.97;7393222;19;19923;-48
2022/10/15 13:51:40;;;;;;;;;;;;;;;14.72;95.48;97819.38;7391012;19;20324;-48
2022/10/15 13:54:12;;;;;;;;;;;;;;;14.80;97.17;97818.72;7396311;19;19936;-49
2022/10/15 13:56:45;;;;;;;;;;;;;;;14.66;95.02;97813.75;7401122;19;19919;-48
2022/10/15 14:02:27;;;;;;;;;;;;;;;14.68;97.74;97822.41;7402444;19;19922;-52
2022/10/15 14:11:05;;;;;;;;;;;;;;;14.32;94.78;97827.16;7396048;19;19926;-50
2022/10/15 14:13:49;;;;;;;;;;;;;;;14.24;96.20;97832.22;7389282;19;19937;-48
2022/10/15 14:16:29;;;;;;;;;;;;;;;14.11;95.13;97831.53;7393944;19;19919;-48
2022/10/15 14:19:00;;;;;;;;;;;;;;;13.87;95.72;97836.16;7393871;19;20283;-50
2022/10/15 14:21:33;;;;;;;;;;;;;;;13.98;96.79;97836.13;7393520;19;19919;-49
2022/10/15 14:24:07;;;;;;;;;;;;;;;13.90;99.58;97832.41;7393965;19;19910;-59
2022/10/15 14:26:52;;;;;;;;;;;;;;;13.75;97.62;97836.28;7392121;19;19917;-47
2022/10/15 14:32:23;;;;;;;;;;;;;;;13.74;97.70;97840.72;7395434;19;19923;-46
2022/10/15 14:38:31;;;;;;;;;;;;;;;13.61;99.74;97829.47;7389874;19;20057;-52
2022/10/15 14:41:15;;;;;;;;;;;;;;;13.65;100.00;97835.34;7391906;19;19910;-48
2022/10/15 14:43:50;;;;;;;;;;;;;;;13.85;98.26;97832.78;7395261;19;20261;-46
2022/10/15 14:52:52;;;;;;;;;;;;;;;13.75;100.00;97829.22;7402686;19;20263;-48
2022/10/15 14:58:28;;;;;;;;;;;;;;;13.95;99.71;97830.22;7399830;19;19988;-49
2022/10/15 15:04:06;;;;;;;;;;;;;;;14.01;99.21;97840.31;7399846;19;19925;-48
2022/10/15 15:12:45;;;;;;;;;;;;;;;13.76;97.04;97830.03;7400682;19;19922;-49
2022/10/15 15:21:29;;;;;;;;;;;;;;;13.67;97.48;97846.66;7402335;19;19930;-48
2022/10/15 15:27:04;;;;;;;;;;;;;;;13.75;97.79;97854.81;7402554;19;20306;-49
2022/10/15 15:29:41;;;;;;;;;;;;;;;13.56;97.71;97852.78;7403463;19;19914;-49
2022/10/15 15:32:12;;;;;;;;;;;;;;;13.28;98.32;97849.75;7404286;19;19915;-48
2022/10/15 15:34:43;;;;;;;;;;;;;;;13.35;98.64;97862.41;7387800;19;20200;-51
2022/10/15 15:37:18;;;;;;;;;;;;;;;13.23;99.15;97849.28;7388030;19;19915;-58
2022/10/15 15:39:47;;;;;;;;;;;;;;;13.15;100.00;97854.34;7389913;19;19943;-48
2022/10/15 15:42:18;;;;;;;;;;;;;;;13.04;100.00;97854.28;7391166;19;20224;-48
2022/10/15 15:44:47;;;;;;;;;;;;;;;12.98;100.00;97846.81;7387333;19;19975;-48
2022/10/15 15:47:16;;;;;;;;;;;;;;;12.97;100.00;97843.34;7392079;19;19951;-48
2022/10/15 15:49:45;;;;;;;;;;;;;;;12.83;100.00;97833.00;7391585;19;19918;-49
2022/10/15 15:52:18;;;;;;;;;;;;;;;12.89;100.00;97840.44;7385548;19;19923;-50
2022/10/15 15:54:50;;;;;;;;;;;;;;;12.97;100.00;97847.78;7392579;19;19947;-51
2022/10/15 15:57:19;;;;;;;;;;;;;;;12.74;100.00;97856.63;7392015;19;19946;-50
2022/10/15 15:59:49;;;;;;;;;;;;;;;12.70;100.00;97856.00;7385235;19;19932;-50
2022/10/15 16:02:18;;;;;;;;;;;;;;;12.68;100.00;97860.56;7388667;19;20306;-49
2022/10/15 16:04:48;;;;;;;;;;;;;;;12.71;100.00;97857.66;7392314;19;19910;-53
2022/10/15 16:07:21;;;;;;;;;;;;;;;12.63;100.00;97861.88;7382061;19;19915;-48
2022/10/15 16:09:50;;;;;;;;;;;;;;;12.59;100.00;97861.25;7390262;19;19915;-47
2022/10/15 16:12:19;;;;;;;;;;;;;;;12.57;100.00;97876.38;7392803;19;19923;-48
2022/10/15 16:14:48;;;;;;;;;;;;;;;12.46;100.00;97871.03;7387587;19;19923;-51
2022/10/15 16:17:17;;;;;;;;;;;;;;;12.49;100.00;97878.72;7389786;19;19952;-49
2022/10/15 16:19:47;;;;;;;;;;;;;;;12.52;100.00;97880.31;7390719;19;19923;-46
2022/10/15 16:22:20;;;;;;;;;;;;;;;12.40;100.00;97884.69;7385511;19;19918;-47
2022/10/15 16:24:51;;;;;;;;;;;;;;;12.44;100.00;97886.13;7391468;19;19918;-50
2022/10/15 16:27:20;;;;;;;;;;;;;;;12.45;100.00;97889.63;7387805;19;19919;-53
2022/10/15 16:29:49;;;;;;;;;;;;;;;12.41;100.00;97890.81;7387550;19;19919;-49
2022/10/15 16:32:18;;;;;;;;;;;;;;;12.50;100.00;97888.34;7390358;19;19915;-48
2022/10/15 16:34:48;;;;;;;;;;;;;;;12.42;100.00;97893.34;7389951;19;19926;-48
2022/10/15 16:37:20;;;;;;;;;;;;;;;12.26;100.00;97900.66;7384129;19;19929;-54
2022/10/15 16:39:51;;;;;;;;;;;;;;;12.44;100.00;97904.59;7390690;19;19994;-51
2022/10/15 16:42:21;;;;;;;;;;;;;;;12.28;100.00;97903.19;7382646;19;20677;-52
2022/10/15 16:44:51;;;;;;;;;;;;;;;12.22;100.00;97906.31;7387762;19;19922;-48
2022/10/15 16:47:21;;;;;;;;;;;;;;;12.22;100.00;97907.13;7391107;19;19919;-51
2022/10/15 16:49:52;;;;;;;;;;;;;;;12.10;100.00;97913.28;7386485;19;19930;-52
2022/10/15 16:52:24;;;;;;;;;;;;;;;11.95;100.00;97917.03;7388983;19;20315;-51
2022/10/15 16:54:54;;;;;;;;;;;;;;;12.03;100.00;97919.97;7387000;19;19918;-47
2022/10/15 16:57:23;;;;;;;;;;;;;;;12.04;100.00;97924.28;7384301;19;20319;-51
2022/10/15 16:59:52;;;;;;;;;;;;;;;12.08;100.00;97925.72;7388604;19;20416;-50
2022/10/15 17:02:22;;;;;;;;;;;;;;;12.08;100.00;97928.38;7384224;19;19918;-52
2022/10/15 17:04:51;;;;;;;;;;;;;;;12.17;100.00;97938.28;7385069;19;19972;-52
2022/10/15 17:07:21;;;;;;;;;;;;;;;12.10;100.00;97936.19;7386867;19;20441;-51
2022/10/15 17:09:52;;;;;;;;;;;;;;;12.23;100.00;97932.53;7389650;19;19915;-48
2022/10/15 17:12:22;;;;;;;;;;;;;;;12.09;100.00;97931.88;7384065;19;19925;-49
2022/10/15 17:14:52;;;;;;;;;;;;;;;11.98;100.00;97934.44;7390420;19;19918;-52
2022/10/15 17:17:22;;;;;;;;;;;;;;;11.99;100.00;97931.69;7389339;19;19925;-48
2022/10/15 17:19:51;;;;;;;;;;;;;;;12.10;100.00;97938.81;7381343;19;20308;-56
2022/10/15 17:22:20;;;;;;;;;;;;;;;11.87;100.00;97940.44;7390086;19;19922;-47
2022/10/15 17:24:53;;;;;;;;;;;;;;;11.88;100.00;97939.47;7389752;19;19919;-48
2022/10/15 17:27:30;;;;;;;;;;;;;;;11.99;100.00;97950.13;7388398;19;19982;-48
2022/10/15 17:30:00;;;;;;;;;;;;;;;11.81;100.00;97943.50;7388328;19;19915;-52
2022/10/15 17:32:29;;;;;;;;;;;;;;;11.86;100.00;97954.53;7391354;19;19943;-48
2022/10/15 17:37:51;;;;;;;;;;;;;;;11.82;100.00;97941.72;7398811;19;19959;-50
2022/10/15 17:40:23;;;;;;;;;;;;;;;11.95;100.00;97945.19;7382393;19;19919;-52
2022/10/15 17:42:54;;;;;;;;;;;;;;;11.85;100.00;97947.59;7387123;19;19914;-47
2022/10/15 17:45:24;;;;;;;;;;;;;;;11.78;100.00;97945.53;7389078;19;19925;-50
2022/10/15 17:47:53;;;;;;;;;;;;;;;11.84;100.00;97951.19;7386603;19;19918;-49
2022/10/15 17:50:23;;;;;;;;;;;;;;;11.78;100.00;97948.97;7388977;19;20296;-47
2022/10/15 17:52:52;;;;;;;;;;;;;;;11.69;100.00;97948.78;7389032;19;20247;-49
2022/10/15 17:55:25;;;;;;;;;;;;;;;11.75;100.00;97953.63;7383510;19;20330;-48
2022/10/15 17:57:54;;;;;;;;;;;;;;;11.72;100.00;97944.16;7387099;19;19914;-47
2022/10/15 18:00:23;;;;;;;;;;;;;;;11.68;100.00;97947.94;7387974;19;19915;-57
2022/10/15 18:02:52;;;;;;;;;;;;;;;11.73;100.00;97959.00;7384757;19;19930;-54
2022/10/15 18:05:21;;;;;;;;;;;;;;;11.67;100.00;97959.44;7389235;19;19926;-54
2022/10/15 18:07:50;;;;;;;;;;;;;;;11.77;100.00;97957.00;7386206;19;19936;-49
2022/10/15 18:10:19;;;;;;;;;;;;;;;11.99;100.00;97959.81;7384602;19;19982;-52
2022/10/15 18:12:51;;;;;;;;;;;;;;;11.96;100.00;97966.16;7386414;19;19976;-52
2022/10/15 18:15:21;;;;;;;;;;;;;;;11.81;100.00;97964.59;7396222;19;19914;-52
2022/10/15 18:17:50;;;;;;;;;;;;;;;11.77;100.00;97968.38;7394729;19;20443;-51
2022/10/15 18:20:19;;;;;;;;;;;;;;;12.29;100.00;97963.75;7395146;19;20303;-50
2022/10/15 18:22:49;;;;;;;;;;;;;;;11.77;100.00;97971.03;7393577;19;19919;-52
2022/10/15 18:25:19;;;;;;;;;;;;;;;11.95;100.00;97971.56;7392086;19;20205;-48
2022/10/15 18:27:48;;;;;;;;;;;;;;;11.74;100.00;97968.59;7393233;19;19929;-53
2022/10/15 18:30:21;;;;;;;;;;;;;;;11.96;100.00;97979.34;7394715;19;20291;-49
2022/10/15 18:32:50;;;;;;;;;;;;;;;11.93;100.00;97982.19;7392521;19;19922;-48
2022/10/15 18:35:19;;;;;;;;;;;;;;;11.83;100.00;97990.84;7393443;19;19937;-50
2022/10/15 18:37:49;;;;;;;;;;;;;;;12.00;100.00;97990.53;7395507;19;19923;-59
2022/10/15 18:40:18;;;;;;;;;;;;;;;12.11;100.00;97994.09;7390284;19;19926;-50
2022/10/15 18:42:47;;;;;;;;;;;;;;;11.98;100.00;97997.72;7392745;19;19915;-48
2022/10/15 18:45:24;;;;;;;;;;;;;;;12.16;100.00;97992.00;7391224;19;19933;-55
2022/10/15 18:47:53;;;;;;;;;;;;;;;12.23;100.00;98006.41;7394153;19;19922;-51
2022/10/15 18:50:23;;;;;;;;;;;;;;;12.01;100.00;98014.13;7393868;19;19918;-47
2022/10/15 18:52:53;;;;;;;;;;;;;;;12.18;100.00;98016.44;7387286;19;20345;-51
2022/10/15 18:55:22;;;;;;;;;;;;;;;12.14;100.00;98020.25;7395555;19;19910;-48
2022/10/15 18:57:51;;;;;;;;;;;;;;;12.22;100.00;98017.91;7394759;19;19911;-48
2022/10/15 19:00:20;;;;;;;;;;;;;;;12.11;100.00;98022.28;7386196;19;19914;-52
2022/10/15 19:02:52;;;;;;;;;;;;;;;12.19;100.00;98017.31;7393371;19;20428;-50
2022/10/15 19:05:21;;;;;;;;;;;;;;;12.07;100.00;98023.41;7394460;19;19923;-47
2022/10/15 19:07:54;;;;;;;;;;;;;;;11.93;100.00;98021.75;7386985;19;19911;-57
2022/10/15 19:10:24;;;;;;;;;;;;;;;11.92;100.00;98016.56;7390395;19;19918;-49
2022/10/15 19:12:53;;;;;;;;;;;;;;;12.05;100.00;98015.63;7393625;19;20262;-52
2022/10/15 19:15:22;;;;;;;;;;;;;;;11.73;100.00;98019.63;7387081;19;20233;-47
2022/10/15 19:17:54;;;;;;;;;;;;;;;11.76;100.00;98023.84;7394153;19;19922;-49
2022/10/15 19:20:26;;;;;;;;;;;;;;;11.93;100.00;98020.91;7397909;19;19922;-48
2022/10/15 19:26:09;;;;;;;;;;;;;;;12.09;100.00;98021.53;7404946;19;20015;-46
2022/10/15 19:28:49;;;;;;;;;;;;;;;11.87;100.00;98027.44;7400608;19;19935;-47
2022/10/15 19:31:24;;;;;;;;;;;;;;;12.15;100.00;98021.94;7386047;19;19929;-48
2022/10/15 19:33:56;;;;;;;;;;;;;;;12.11;100.00;98023.09;7388781;19;20364;-51
2022/10/15 19:36:27;;;;;;;;;;;;;;;11.92;100.00;98027.97;7387829;19;19929;-49